sensor_id;sensor_type;location;lat;lon;timestamp;P1;durP1;ratioP1;P2;durP2;ratioP2
305;SDS011;137;48.578;9.180;2022-10-17T00:00:42;5.90;;;2.53;;
305;SDS011;137;48.578;9.180;2022-10-17T00:03:09;3.83;;;2.40;;
305;SDS011;137;48.578;9.180;2022-10-17T00:05:38;7.63;;;3.20;;
305;SDS011;137;48.578;9.180;2022-10-17T00:08:07;21.67;;;3.47;;
305;SDS011;137;48.578;9.180;2022-10-17T00:10:34;9.33;;;3.20;;
305;SDS011;137;48.578;9.180;2022-10-17T00:13:02;3.30;;;2.57;;
305;SDS011;137;48.578;9.180;2022-10-17T00:15:29;4.03;;;3.07;;
305;SDS011;137;48.578;9.180;2022-10-17T00:17:56;6.57;;;3.37;;
305;SDS011;137;48.578;9.180;2022-10-17T00:20:23;3.30;;;2.57;;
305;SDS011;137;48.578;9.180;2022-10-17T00:22:50;6.03;;;3.00;;
305;SDS011;137;48.578;9.180;2022-10-17T00:25:18;4.93;;;3.83;;
305;SDS011;137;48.578;9.180;2022-10-17T00:27:45;5.10;;;2.80;;
305;SDS011;137;48.578;9.180;2022-10-17T00:30:12;7.67;;;2.50;;
305;SDS011;137;48.578;9.180;2022-10-17T00:32:40;4.83;;;2.70;;
305;SDS011;137;48.578;9.180;2022-10-17T00:35:07;3.83;;;1.97;;
305;SDS011;137;48.578;9.180;2022-10-17T00:37:34;5.63;;;2.17;;
305;SDS011;137;48.578;9.180;2022-10-17T00:40:02;4.07;;;1.97;;
305;SDS011;137;48.578;9.180;2022-10-17T00:42:31;3.30;;;2.70;;
305;SDS011;137;48.578;9.180;2022-10-17T00:47:42;3.00;;;2.73;;
305;SDS011;137;48.578;9.180;2022-10-17T00:50:12;6.40;;;2.90;;
305;SDS011;137;48.578;9.180;2022-10-17T00:52:40;4.30;;;3.00;;
305;SDS011;137;48.578;9.180;2022-10-17T00:55:08;2.97;;;2.10;;
305;SDS011;137;48.578;9.180;2022-10-17T00:57:40;3.50;;;2.60;;
305;SDS011;137;48.578;9.180;2022-10-17T01:00:09;5.40;;;2.87;;
305;SDS011;137;48.578;9.180;2022-10-17T01:02:37;4.30;;;2.20;;
305;SDS011;137;48.578;9.180;2022-10-17T01:05:05;3.70;;;2.50;;
305;SDS011;137;48.578;9.180;2022-10-17T01:07:32;4.83;;;2.57;;
305;SDS011;137;48.578;9.180;2022-10-17T01:10:00;4.97;;;3.63;;
305;SDS011;137;48.578;9.180;2022-10-17T01:12:28;4.00;;;2.70;;
305;SDS011;137;48.578;9.180;2022-10-17T01:15:07;4.53;;;2.93;;
305;SDS011;137;48.578;9.180;2022-10-17T01:17:41;5.50;;;2.67;;
305;SDS011;137;48.578;9.180;2022-10-17T01:20:24;3.23;;;2.40;;
305;SDS011;137;48.578;9.180;2022-10-17T01:23:17;2.90;;;2.37;;
305;SDS011;137;48.578;9.180;2022-10-17T01:25:56;3.80;;;2.70;;
305;SDS011;137;48.578;9.180;2022-10-17T01:28:46;3.03;;;2.33;;
305;SDS011;137;48.578;9.180;2022-10-17T01:31:42;2.53;;;2.20;;
305;SDS011;137;48.578;9.180;2022-10-17T01:34:13;4.20;;;2.80;;
305;SDS011;137;48.578;9.180;2022-10-17T01:36:46;6.87;;;2.73;;
305;SDS011;137;48.578;9.180;2022-10-17T01:39:19;4.80;;;2.47;;
305;SDS011;137;48.578;9.180;2022-10-17T01:41:51;3.47;;;2.37;;
305;SDS011;137;48.578;9.180;2022-10-17T01:44:26;3.43;;;2.90;;
305;SDS011;137;48.578;9.180;2022-10-17T01:47:00;5.57;;;4.80;;
305;SDS011;137;48.578;9.180;2022-10-17T01:49:30;7.37;;;3.50;;
305;SDS011;137;48.578;9.180;2022-10-17T01:51:59;8.67;;;2.50;;
305;SDS011;137;48.578;9.180;2022-10-17T01:54:30;4.40;;;2.30;;
305;SDS011;137;48.578;9.180;2022-10-17T01:57:00;5.50;;;2.63;;
305;SDS011;137;48.578;9.180;2022-10-17T01:59:33;3.40;;;2.30;;
305;SDS011;137;48.578;9.180;2022-10-17T02:02:06;4.57;;;2.63;;
305;SDS011;137;48.578;9.180;2022-10-17T02:04:34;3.93;;;2.20;;
305;SDS011;137;48.578;9.180;2022-10-17T02:07:05;7.60;;;2.60;;
305;SDS011;137;48.578;9.180;2022-10-17T02:09:32;3.10;;;1.93;;
305;SDS011;137;48.578;9.180;2022-10-17T02:12:25;7.37;;;2.97;;
305;SDS011;137;48.578;9.180;2022-10-17T02:15:04;5.10;;;2.57;;
305;SDS011;137;48.578;9.180;2022-10-17T02:17:43;4.33;;;2.70;;
305;SDS011;137;48.578;9.180;2022-10-17T02:20:14;4.67;;;2.47;;
305;SDS011;137;48.578;9.180;2022-10-17T02:22:46;3.70;;;2.27;;
305;SDS011;137;48.578;9.180;2022-10-17T02:25:22;10.23;;;3.37;;
305;SDS011;137;48.578;9.180;2022-10-17T02:27:58;5.10;;;3.10;;
305;SDS011;137;48.578;9.180;2022-10-17T02:30:32;3.77;;;2.30;;
305;SDS011;137;48.578;9.180;2022-10-17T02:33:05;4.50;;;2.20;;
305;SDS011;137;48.578;9.180;2022-10-17T02:35:37;6.30;;;2.50;;
305;SDS011;137;48.578;9.180;2022-10-17T02:38:07;5.23;;;2.57;;
305;SDS011;137;48.578;9.180;2022-10-17T02:40:37;2.70;;;2.17;;
305;SDS011;137;48.578;9.180;2022-10-17T02:43:06;11.33;;;2.40;;
305;SDS011;137;48.578;9.180;2022-10-17T02:45:33;3.33;;;2.87;;
305;SDS011;137;48.578;9.180;2022-10-17T02:48:03;3.30;;;2.40;;
305;SDS011;137;48.578;9.180;2022-10-17T02:50:37;4.83;;;2.70;;
305;SDS011;137;48.578;9.180;2022-10-17T02:53:14;5.30;;;2.30;;
305;SDS011;137;48.578;9.180;2022-10-17T02:55:49;2.77;;;2.57;;
305;SDS011;137;48.578;9.180;2022-10-17T02:58:19;5.07;;;2.73;;
305;SDS011;137;48.578;9.180;2022-10-17T03:00:49;13.77;;;4.30;;
305;SDS011;137;48.578;9.180;2022-10-17T03:03:20;6.90;;;3.10;;
305;SDS011;137;48.578;9.180;2022-10-17T03:05:48;7.40;;;3.10;;
305;SDS011;137;48.578;9.180;2022-10-17T03:08:16;3.63;;;2.77;;
305;SDS011;137;48.578;9.180;2022-10-17T03:10:42;4.80;;;3.20;;
305;SDS011;137;48.578;9.180;2022-10-17T03:13:09;5.20;;;3.07;;
305;SDS011;137;48.578;9.180;2022-10-17T03:15:36;5.13;;;3.17;;
305;SDS011;137;48.578;9.180;2022-10-17T03:18:06;6.90;;;3.43;;
305;SDS011;137;48.578;9.180;2022-10-17T03:20:34;6.40;;;3.33;;
305;SDS011;137;48.578;9.180;2022-10-17T03:23:01;3.10;;;2.90;;
305;SDS011;137;48.578;9.180;2022-10-17T03:25:28;3.10;;;2.80;;
305;SDS011;137;48.578;9.180;2022-10-17T03:27:56;6.60;;;3.50;;
305;SDS011;137;48.578;9.180;2022-10-17T03:30:23;12.00;;;2.90;;
305;SDS011;137;48.578;9.180;2022-10-17T03:32:50;6.53;;;3.37;;
305;SDS011;137;48.578;9.180;2022-10-17T03:35:17;6.60;;;2.80;;
305;SDS011;137;48.578;9.180;2022-10-17T03:37:45;3.50;;;2.30;;
305;SDS011;137;48.578;9.180;2022-10-17T03:40:12;5.03;;;2.70;;
305;SDS011;137;48.578;9.180;2022-10-17T03:42:39;3.13;;;2.03;;
305;SDS011;137;48.578;9.180;2022-10-17T03:45:06;4.60;;;2.60;;
305;SDS011;137;48.578;9.180;2022-10-17T03:47:33;5.30;;;2.33;;
305;SDS011;137;48.578;9.180;2022-10-17T03:50:00;7.17;;;2.53;;
305;SDS011;137;48.578;9.180;2022-10-17T03:52:27;5.83;;;3.37;;
305;SDS011;137;48.578;9.180;2022-10-17T03:54:55;4.23;;;3.67;;
305;SDS011;137;48.578;9.180;2022-10-17T03:57:22;11.43;;;4.20;;
305;SDS011;137;48.578;9.180;2022-10-17T03:59:49;3.67;;;3.37;;
305;SDS011;137;48.578;9.180;2022-10-17T04:02:16;8.60;;;3.93;;
305;SDS011;137;48.578;9.180;2022-10-17T04:04:43;6.07;;;4.17;;
305;SDS011;137;48.578;9.180;2022-10-17T04:07:09;9.80;;;3.67;;
305;SDS011;137;48.578;9.180;2022-10-17T04:09:36;9.73;;;3.60;;
305;SDS011;137;48.578;9.180;2022-10-17T04:12:04;7.17;;;3.23;;
305;SDS011;137;48.578;9.180;2022-10-17T04:14:31;3.87;;;2.80;;
305;SDS011;137;48.578;9.180;2022-10-17T04:16:58;5.23;;;2.77;;
305;SDS011;137;48.578;9.180;2022-10-17T04:19:25;4.27;;;3.20;;
305;SDS011;137;48.578;9.180;2022-10-17T04:21:51;6.43;;;3.60;;
305;SDS011;137;48.578;9.180;2022-10-17T04:24:18;3.70;;;3.40;;
305;SDS011;137;48.578;9.180;2022-10-17T04:26:46;6.13;;;2.63;;
305;SDS011;137;48.578;9.180;2022-10-17T04:29:16;5.43;;;4.07;;
305;SDS011;137;48.578;9.180;2022-10-17T04:31:43;4.43;;;3.50;;
305;SDS011;137;48.578;9.180;2022-10-17T04:34:10;6.40;;;2.77;;
305;SDS011;137;48.578;9.180;2022-10-17T04:36:38;6.93;;;3.17;;
305;SDS011;137;48.578;9.180;2022-10-17T04:39:05;3.43;;;2.70;;
305;SDS011;137;48.578;9.180;2022-10-17T04:41:31;6.50;;;3.00;;
305;SDS011;137;48.578;9.180;2022-10-17T04:43:58;4.67;;;3.23;;
305;SDS011;137;48.578;9.180;2022-10-17T04:46:26;7.63;;;3.07;;
305;SDS011;137;48.578;9.180;2022-10-17T04:48:53;5.27;;;3.50;;
305;SDS011;137;48.578;9.180;2022-10-17T04:51:20;3.70;;;2.57;;
305;SDS011;137;48.578;9.180;2022-10-17T04:53:46;7.70;;;3.30;;
305;SDS011;137;48.578;9.180;2022-10-17T04:56:14;3.13;;;2.63;;
305;SDS011;137;48.578;9.180;2022-10-17T04:58:42;4.50;;;2.90;;
305;SDS011;137;48.578;9.180;2022-10-17T05:01:10;7.70;;;3.90;;
305;SDS011;137;48.578;9.180;2022-10-17T05:03:40;4.83;;;3.37;;
305;SDS011;137;48.578;9.180;2022-10-17T05:06:08;3.27;;;2.53;;
305;SDS011;137;48.578;9.180;2022-10-17T05:08:38;5.90;;;2.90;;
305;SDS011;137;48.578;9.180;2022-10-17T05:11:05;5.10;;;3.10;;
305;SDS011;137;48.578;9.180;2022-10-17T05:13:40;8.40;;;3.93;;
305;SDS011;137;48.578;9.180;2022-10-17T05:16:06;6.90;;;3.40;;
305;SDS011;137;48.578;9.180;2022-10-17T05:18:35;5.93;;;3.30;;
305;SDS011;137;48.578;9.180;2022-10-17T05:21:03;6.50;;;2.53;;
305;SDS011;137;48.578;9.180;2022-10-17T05:23:30;4.47;;;2.30;;
305;SDS011;137;48.578;9.180;2022-10-17T05:25:56;3.50;;;3.20;;
305;SDS011;137;48.578;9.180;2022-10-17T05:28:23;7.63;;;3.10;;
305;SDS011;137;48.578;9.180;2022-10-17T05:30:50;3.57;;;3.27;;
305;SDS011;137;48.578;9.180;2022-10-17T05:33:17;3.80;;;2.80;;
305;SDS011;137;48.578;9.180;2022-10-17T05:35:44;3.87;;;3.53;;
305;SDS011;137;48.578;9.180;2022-10-17T05:38:12;4.30;;;3.90;;
305;SDS011;137;48.578;9.180;2022-10-17T05:40:39;5.00;;;4.57;;
305;SDS011;137;48.578;9.180;2022-10-17T05:43:05;5.73;;;3.37;;
305;SDS011;137;48.578;9.180;2022-10-17T05:45:32;5.03;;;3.20;;
305;SDS011;137;48.578;9.180;2022-10-17T05:47:59;5.20;;;4.00;;
305;SDS011;137;48.578;9.180;2022-10-17T05:50:26;5.97;;;3.73;;
305;SDS011;137;48.578;9.180;2022-10-17T05:52:52;3.70;;;3.37;;
305;SDS011;137;48.578;9.180;2022-10-17T05:55:21;3.57;;;3.23;;
305;SDS011;137;48.578;9.180;2022-10-17T05:57:48;5.77;;;3.60;;
305;SDS011;137;48.578;9.180;2022-10-17T06:00:16;4.90;;;3.90;;
305;SDS011;137;48.578;9.180;2022-10-17T06:02:45;4.50;;;2.90;;
305;SDS011;137;48.578;9.180;2022-10-17T06:05:12;3.50;;;3.13;;
305;SDS011;137;48.578;9.180;2022-10-17T06:07:40;6.47;;;5.23;;
305;SDS011;137;48.578;9.180;2022-10-17T06:10:07;4.10;;;3.70;;
305;SDS011;137;48.578;9.180;2022-10-17T06:12:37;5.03;;;3.60;;
305;SDS011;137;48.578;9.180;2022-10-17T06:15:05;3.40;;;3.10;;
305;SDS011;137;48.578;9.180;2022-10-17T06:17:32;7.40;;;3.50;;
305;SDS011;137;48.578;9.180;2022-10-17T06:19:59;4.07;;;3.37;;
305;SDS011;137;48.578;9.180;2022-10-17T06:22:26;6.50;;;3.30;;
305;SDS011;137;48.578;9.180;2022-10-17T06:24:54;5.90;;;3.47;;
305;SDS011;137;48.578;9.180;2022-10-17T06:27:21;9.40;;;3.30;;
305;SDS011;137;48.578;9.180;2022-10-17T06:29:49;6.33;;;3.67;;
305;SDS011;137;48.578;9.180;2022-10-17T06:32:16;4.37;;;3.60;;
305;SDS011;137;48.578;9.180;2022-10-17T06:34:43;4.37;;;3.20;;
305;SDS011;137;48.578;9.180;2022-10-17T06:37:09;4.53;;;3.67;;
305;SDS011;137;48.578;9.180;2022-10-17T06:39:36;5.80;;;3.95;;
305;SDS011;137;48.578;9.180;2022-10-17T06:42:03;6.77;;;3.70;;
305;SDS011;137;48.578;9.180;2022-10-17T06:44:30;4.87;;;4.07;;
305;SDS011;137;48.578;9.180;2022-10-17T06:46:59;6.77;;;3.40;;
305;SDS011;137;48.578;9.180;2022-10-17T06:49:26;3.90;;;2.90;;
305;SDS011;137;48.578;9.180;2022-10-17T06:51:53;3.50;;;3.20;;
305;SDS011;137;48.578;9.180;2022-10-17T06:54:20;7.03;;;3.40;;
305;SDS011;137;48.578;9.180;2022-10-17T06:56:47;3.87;;;3.30;;
305;SDS011;137;48.578;9.180;2022-10-17T06:59:14;3.40;;;3.10;;
305;SDS011;137;48.578;9.180;2022-10-17T07:01:41;4.70;;;2.67;;
305;SDS011;137;48.578;9.180;2022-10-17T07:04:09;51.40;;;4.00;;
305;SDS011;137;48.578;9.180;2022-10-17T07:06:36;4.73;;;4.23;;
305;SDS011;137;48.578;9.180;2022-10-17T07:09:03;4.60;;;3.77;;
305;SDS011;137;48.578;9.180;2022-10-17T07:11:31;3.90;;;3.50;;
305;SDS011;137;48.578;9.180;2022-10-17T07:13:59;5.07;;;3.50;;
305;SDS011;137;48.578;9.180;2022-10-17T07:16:26;5.00;;;4.13;;
305;SDS011;137;48.578;9.180;2022-10-17T07:18:53;6.40;;;4.57;;
305;SDS011;137;48.578;9.180;2022-10-17T07:21:23;6.63;;;3.90;;
305;SDS011;137;48.578;9.180;2022-10-17T07:23:50;6.80;;;4.07;;
305;SDS011;137;48.578;9.180;2022-10-17T07:26:17;4.90;;;3.70;;
305;SDS011;137;48.578;9.180;2022-10-17T07:28:45;5.00;;;3.80;;
305;SDS011;137;48.578;9.180;2022-10-17T07:31:14;7.10;;;3.50;;
305;SDS011;137;48.578;9.180;2022-10-17T07:33:42;6.97;;;3.03;;
305;SDS011;137;48.578;9.180;2022-10-17T07:36:09;9.40;;;3.00;;
305;SDS011;137;48.578;9.180;2022-10-17T07:38:38;3.13;;;2.87;;
305;SDS011;137;48.578;9.180;2022-10-17T07:41:06;5.73;;;3.20;;
305;SDS011;137;48.578;9.180;2022-10-17T07:43:34;5.33;;;2.80;;
305;SDS011;137;48.578;9.180;2022-10-17T07:46:02;6.97;;;3.00;;
305;SDS011;137;48.578;9.180;2022-10-17T07:48:30;4.73;;;2.97;;
305;SDS011;137;48.578;9.180;2022-10-17T07:51:00;4.00;;;2.60;;
305;SDS011;137;48.578;9.180;2022-10-17T07:53:27;3.87;;;3.33;;
305;SDS011;137;48.578;9.180;2022-10-17T07:55:56;3.67;;;2.60;;
305;SDS011;137;48.578;9.180;2022-10-17T07:58:23;5.90;;;3.00;;
305;SDS011;137;48.578;9.180;2022-10-17T08:00:50;3.43;;;2.63;;
305;SDS011;137;48.578;9.180;2022-10-17T08:03:17;8.53;;;2.60;;
305;SDS011;137;48.578;9.180;2022-10-17T08:05:44;4.13;;;3.70;;
305;SDS011;137;48.578;9.180;2022-10-17T08:08:11;4.90;;;2.63;;
305;SDS011;137;48.578;9.180;2022-10-17T08:10:38;4.10;;;2.40;;
305;SDS011;137;48.578;9.180;2022-10-17T08:15:58;7.53;;;2.63;;
305;SDS011;137;48.578;9.180;2022-10-17T08:18:25;6.30;;;3.37;;
305;SDS011;137;48.578;9.180;2022-10-17T08:20:52;3.60;;;2.97;;
305;SDS011;137;48.578;9.180;2022-10-17T08:23:20;4.60;;;2.47;;
305;SDS011;137;48.578;9.180;2022-10-17T08:25:46;3.53;;;2.67;;
305;SDS011;137;48.578;9.180;2022-10-17T08:28:13;2.93;;;2.67;;
305;SDS011;137;48.578;9.180;2022-10-17T08:30:41;7.37;;;2.70;;
305;SDS011;137;48.578;9.180;2022-10-17T08:33:08;13.10;;;2.90;;
305;SDS011;137;48.578;9.180;2022-10-17T08:35:35;2.33;;;2.10;;
305;SDS011;137;48.578;9.180;2022-10-17T08:38:02;3.73;;;3.33;;
305;SDS011;137;48.578;9.180;2022-10-17T08:40:30;3.17;;;2.87;;
305;SDS011;137;48.578;9.180;2022-10-17T08:43:10;6.33;;;2.60;;
305;SDS011;137;48.578;9.180;2022-10-17T08:45:53;2.47;;;2.20;;
305;SDS011;137;48.578;9.180;2022-10-17T08:48:24;2.47;;;2.27;;
305;SDS011;137;48.578;9.180;2022-10-17T08:50:54;2.60;;;2.40;;
305;SDS011;137;48.578;9.180;2022-10-17T08:53:24;5.83;;;2.50;;
305;SDS011;137;48.578;9.180;2022-10-17T08:55:56;2.83;;;2.37;;
305;SDS011;137;48.578;9.180;2022-10-17T08:58:27;3.37;;;2.23;;
305;SDS011;137;48.578;9.180;2022-10-17T09:01:01;5.53;;;2.30;;
305;SDS011;137;48.578;9.180;2022-10-17T09:03:37;2.60;;;2.30;;
305;SDS011;137;48.578;9.180;2022-10-17T09:06:22;6.67;;;2.37;;
305;SDS011;137;48.578;9.180;2022-10-17T09:09:01;3.23;;;2.23;;
305;SDS011;137;48.578;9.180;2022-10-17T09:11:40;6.17;;;2.10;;
305;SDS011;137;48.578;9.180;2022-10-17T09:17:17;2.37;;;1.73;;
305;SDS011;137;48.578;9.180;2022-10-17T09:19:55;2.67;;;2.00;;
305;SDS011;137;48.578;9.180;2022-10-17T09:22:27;2.87;;;2.57;;
305;SDS011;137;48.578;9.180;2022-10-17T09:24:58;2.10;;;1.83;;
305;SDS011;137;48.578;9.180;2022-10-17T09:27:31;3.07;;;2.10;;
305;SDS011;137;48.578;9.180;2022-10-17T09:30:20;3.60;;;2.20;;
305;SDS011;137;48.578;9.180;2022-10-17T09:32:54;3.97;;;1.90;;
305;SDS011;137;48.578;9.180;2022-10-17T09:35:21;3.37;;;2.10;;
305;SDS011;137;48.578;9.180;2022-10-17T09:37:49;3.43;;;1.80;;
305;SDS011;137;48.578;9.180;2022-10-17T09:40:18;3.03;;;2.23;;
305;SDS011;137;48.578;9.180;2022-10-17T09:42:50;3.47;;;1.97;;
305;SDS011;137;48.578;9.180;2022-10-17T09:45:18;3.50;;;1.80;;
305;SDS011;137;48.578;9.180;2022-10-17T09:47:50;3.83;;;1.57;;
305;SDS011;137;48.578;9.180;2022-10-17T09:50:24;6.30;;;2.47;;
305;SDS011;137;48.578;9.180;2022-10-17T09:52:53;4.90;;;2.13;;
305;SDS011;137;48.578;9.180;2022-10-17T09:55:24;3.60;;;2.43;;
305;SDS011;137;48.578;9.180;2022-10-17T09:57:56;3.00;;;1.80;;
305;SDS011;137;48.578;9.180;2022-10-17T10:00:25;2.43;;;1.80;;
305;SDS011;137;48.578;9.180;2022-10-17T10:05:39;2.23;;;1.50;;
305;SDS011;137;48.578;9.180;2022-10-17T10:08:11;4.63;;;2.17;;
305;SDS011;137;48.578;9.180;2022-10-17T10:10:39;2.57;;;1.83;;
305;SDS011;137;48.578;9.180;2022-10-17T10:13:15;2.20;;;1.80;;
305;SDS011;137;48.578;9.180;2022-10-17T10:15:44;3.13;;;1.73;;
305;SDS011;137;48.578;9.180;2022-10-17T10:18:30;6.10;;;1.97;;
305;SDS011;137;48.578;9.180;2022-10-17T10:21:04;3.10;;;1.83;;
305;SDS011;137;48.578;9.180;2022-10-17T10:23:37;3.00;;;1.80;;
305;SDS011;137;48.578;9.180;2022-10-17T10:26:12;2.70;;;1.60;;
305;SDS011;137;48.578;9.180;2022-10-17T10:28:54;6.07;;;2.00;;
305;SDS011;137;48.578;9.180;2022-10-17T10:31:26;3.23;;;1.70;;
305;SDS011;137;48.578;9.180;2022-10-17T10:33:57;1.73;;;1.47;;
305;SDS011;137;48.578;9.180;2022-10-17T10:36:40;2.07;;;1.87;;
305;SDS011;137;48.578;9.180;2022-10-17T10:39:08;3.90;;;1.60;;
305;SDS011;137;48.578;9.180;2022-10-17T10:41:53;5.50;;;1.77;;
305;SDS011;137;48.578;9.180;2022-10-17T10:44:20;2.63;;;1.60;;
305;SDS011;137;48.578;9.180;2022-10-17T10:47:04;2.90;;;1.40;;
305;SDS011;137;48.578;9.180;2022-10-17T10:49:34;4.10;;;1.30;;
305;SDS011;137;48.578;9.180;2022-10-17T10:52:03;2.50;;;1.77;;
305;SDS011;137;48.578;9.180;2022-10-17T10:54:33;3.30;;;1.77;;
305;SDS011;137;48.578;9.180;2022-10-17T10:57:04;3.20;;;1.77;;
305;SDS011;137;48.578;9.180;2022-10-17T10:59:36;3.40;;;1.40;;
305;SDS011;137;48.578;9.180;2022-10-17T11:02:10;5.57;;;1.80;;
305;SDS011;137;48.578;9.180;2022-10-17T11:04:42;2.30;;;1.90;;
305;SDS011;137;48.578;9.180;2022-10-17T11:07:12;2.70;;;1.50;;
305;SDS011;137;48.578;9.180;2022-10-17T11:09:45;2.87;;;1.60;;
305;SDS011;137;48.578;9.180;2022-10-17T11:12:17;2.80;;;1.70;;
305;SDS011;137;48.578;9.180;2022-10-17T11:14:50;3.77;;;1.80;;
305;SDS011;137;48.578;9.180;2022-10-17T11:17:26;2.70;;;1.70;;
305;SDS011;137;48.578;9.180;2022-10-17T11:20:01;3.17;;;1.40;;
305;SDS011;137;48.578;9.180;2022-10-17T11:22:37;3.60;;;2.00;;
305;SDS011;137;48.578;9.180;2022-10-17T11:25:13;3.23;;;1.77;;
305;SDS011;137;48.578;9.180;2022-10-17T11:27:46;3.80;;;1.80;;
305;SDS011;137;48.578;9.180;2022-10-17T11:30:13;2.70;;;1.83;;
305;SDS011;137;48.578;9.180;2022-10-17T11:32:42;3.50;;;1.70;;
305;SDS011;137;48.578;9.180;2022-10-17T11:35:16;1.70;;;1.40;;
305;SDS011;137;48.578;9.180;2022-10-17T11:37:47;2.40;;;1.97;;
305;SDS011;137;48.578;9.180;2022-10-17T11:40:20;3.50;;;1.97;;
305;SDS011;137;48.578;9.180;2022-10-17T11:42:51;2.07;;;1.50;;
305;SDS011;137;48.578;9.180;2022-10-17T11:45:22;5.97;;;1.50;;
305;SDS011;137;48.578;9.180;2022-10-17T11:47:53;6.00;;;1.80;;
305;SDS011;137;48.578;9.180;2022-10-17T11:50:28;4.67;;;1.97;;
305;SDS011;137;48.578;9.180;2022-10-17T11:52:57;6.80;;;2.33;;
305;SDS011;137;48.578;9.180;2022-10-17T11:55:27;3.20;;;1.50;;
305;SDS011;137;48.578;9.180;2022-10-17T11:57:59;2.90;;;1.53;;
305;SDS011;137;48.578;9.180;2022-10-17T12:00:41;2.57;;;1.47;;
305;SDS011;137;48.578;9.180;2022-10-17T12:03:20;6.03;;;1.60;;
305;SDS011;137;48.578;9.180;2022-10-17T12:05:59;3.53;;;1.97;;
305;SDS011;137;48.578;9.180;2022-10-17T12:08:35;3.10;;;1.77;;
305;SDS011;137;48.578;9.180;2022-10-17T12:11:10;4.80;;;1.47;;
305;SDS011;137;48.578;9.180;2022-10-17T12:13:58;2.03;;;1.40;;
305;SDS011;137;48.578;9.180;2022-10-17T12:19:22;5.53;;;1.80;;
305;SDS011;137;48.578;9.180;2022-10-17T12:21:54;1.83;;;1.63;;
305;SDS011;137;48.578;9.180;2022-10-17T12:24:32;4.23;;;1.40;;
305;SDS011;137;48.578;9.180;2022-10-17T12:30:04;2.37;;;1.37;;
305;SDS011;137;48.578;9.180;2022-10-17T12:32:52;2.03;;;1.40;;
305;SDS011;137;48.578;9.180;2022-10-17T12:35:25;2.33;;;1.70;;
305;SDS011;137;48.578;9.180;2022-10-17T12:40:50;2.33;;;1.50;;
305;SDS011;137;48.578;9.180;2022-10-17T12:46:44;4.27;;;1.53;;
305;SDS011;137;48.578;9.180;2022-10-17T12:49:20;3.23;;;1.53;;
305;SDS011;137;48.578;9.180;2022-10-17T12:54:56;2.40;;;1.40;;
305;SDS011;137;48.578;9.180;2022-10-17T12:57:29;3.50;;;1.60;;
305;SDS011;137;48.578;9.180;2022-10-17T12:59:59;3.30;;;1.47;;
305;SDS011;137;48.578;9.180;2022-10-17T13:02:29;2.80;;;1.43;;
305;SDS011;137;48.578;9.180;2022-10-17T13:05:02;2.83;;;1.77;;
305;SDS011;137;48.578;9.180;2022-10-17T13:07:33;2.27;;;1.03;;
305;SDS011;137;48.578;9.180;2022-10-17T13:10:03;2.17;;;1.20;;
305;SDS011;137;48.578;9.180;2022-10-17T13:12:31;2.73;;;1.13;;
305;SDS011;137;48.578;9.180;2022-10-17T13:15:02;3.23;;;1.37;;
305;SDS011;137;48.578;9.180;2022-10-17T13:17:31;1.80;;;1.20;;
305;SDS011;137;48.578;9.180;2022-10-17T13:19:58;1.80;;;1.10;;
305;SDS011;137;48.578;9.180;2022-10-17T13:22:26;5.97;;;1.43;;
305;SDS011;137;48.578;9.180;2022-10-17T13:25:05;2.33;;;1.30;;
305;SDS011;137;48.578;9.180;2022-10-17T13:27:34;2.07;;;1.17;;
305;SDS011;137;48.578;9.180;2022-10-17T13:30:20;6.70;;;1.70;;
305;SDS011;137;48.578;9.180;2022-10-17T13:32:49;3.40;;;1.57;;
305;SDS011;137;48.578;9.180;2022-10-17T13:35:21;2.73;;;1.90;;
305;SDS011;137;48.578;9.180;2022-10-17T13:37:51;2.37;;;1.40;;
305;SDS011;137;48.578;9.180;2022-10-17T13:40:22;6.33;;;1.67;;
305;SDS011;137;48.578;9.180;2022-10-17T13:42:50;1.93;;;1.73;;
305;SDS011;137;48.578;9.180;2022-10-17T13:45:27;3.20;;;1.20;;
305;SDS011;137;48.578;9.180;2022-10-17T13:47:55;9.33;;;1.93;;
305;SDS011;137;48.578;9.180;2022-10-17T13:50:26;3.20;;;1.87;;
305;SDS011;137;48.578;9.180;2022-10-17T13:53:07;4.17;;;1.63;;
305;SDS011;137;48.578;9.180;2022-10-17T13:55:50;5.60;;;1.53;;
305;SDS011;137;48.578;9.180;2022-10-17T13:58:23;2.60;;;1.30;;
305;SDS011;137;48.578;9.180;2022-10-17T14:00:51;4.60;;;1.30;;
305;SDS011;137;48.578;9.180;2022-10-17T14:03:19;2.83;;;1.50;;
305;SDS011;137;48.578;9.180;2022-10-17T14:08:46;10.50;;;1.37;;
305;SDS011;137;48.578;9.180;2022-10-17T14:11:19;4.33;;;1.87;;
305;SDS011;137;48.578;9.180;2022-10-17T14:13:50;2.70;;;1.30;;
305;SDS011;137;48.578;9.180;2022-10-17T14:16:18;2.33;;;1.37;;
305;SDS011;137;48.578;9.180;2022-10-17T14:18:46;3.93;;;1.20;;
305;SDS011;137;48.578;9.180;2022-10-17T14:21:18;5.50;;;1.70;;
305;SDS011;137;48.578;9.180;2022-10-17T14:23:46;4.30;;;1.50;;
305;SDS011;137;48.578;9.180;2022-10-17T14:26:14;4.23;;;1.40;;
305;SDS011;137;48.578;9.180;2022-10-17T14:28:45;3.93;;;1.40;;
305;SDS011;137;48.578;9.180;2022-10-17T14:31:21;4.70;;;1.40;;
305;SDS011;137;48.578;9.180;2022-10-17T14:33:54;2.03;;;1.47;;
305;SDS011;137;48.578;9.180;2022-10-17T14:36:29;2.93;;;1.33;;
305;SDS011;137;48.578;9.180;2022-10-17T14:39:01;3.97;;;1.60;;
305;SDS011;137;48.578;9.180;2022-10-17T14:41:29;7.10;;;1.30;;
305;SDS011;137;48.578;9.180;2022-10-17T14:44:00;4.50;;;1.10;;
305;SDS011;137;48.578;9.180;2022-10-17T14:46:30;2.13;;;1.40;;
305;SDS011;137;48.578;9.180;2022-10-17T14:49:03;2.83;;;1.30;;
305;SDS011;137;48.578;9.180;2022-10-17T14:51:31;3.80;;;1.33;;
305;SDS011;137;48.578;9.180;2022-10-17T14:53:59;4.37;;;1.63;;
305;SDS011;137;48.578;9.180;2022-10-17T14:56:35;5.60;;;1.67;;
305;SDS011;137;48.578;9.180;2022-10-17T14:59:07;2.10;;;1.40;;
305;SDS011;137;48.578;9.180;2022-10-17T15:01:35;4.33;;;1.30;;
305;SDS011;137;48.578;9.180;2022-10-17T15:04:01;5.20;;;1.60;;
305;SDS011;137;48.578;9.180;2022-10-17T15:06:29;4.27;;;1.77;;
305;SDS011;137;48.578;9.180;2022-10-17T15:08:58;2.83;;;1.60;;
305;SDS011;137;48.578;9.180;2022-10-17T15:11:24;3.03;;;1.50;;
305;SDS011;137;48.578;9.180;2022-10-17T15:13:51;3.40;;;1.30;;
305;SDS011;137;48.578;9.180;2022-10-17T15:16:20;3.27;;;1.30;;
305;SDS011;137;48.578;9.180;2022-10-17T15:18:48;2.30;;;1.20;;
305;SDS011;137;48.578;9.180;2022-10-17T15:21:16;2.47;;;1.30;;
305;SDS011;137;48.578;9.180;2022-10-17T15:23:44;2.10;;;1.60;;
305;SDS011;137;48.578;9.180;2022-10-17T15:26:15;1.90;;;1.53;;
305;SDS011;137;48.578;9.180;2022-10-17T15:28:43;1.67;;;1.20;;
305;SDS011;137;48.578;9.180;2022-10-17T15:31:11;2.17;;;1.65;;
305;SDS011;137;48.578;9.180;2022-10-17T15:43:12;2.80;;;1.80;;
305;SDS011;137;48.578;9.180;2022-10-17T15:45:54;3.10;;;1.47;;
305;SDS011;137;48.578;9.180;2022-10-17T15:48:35;2.10;;;1.80;;
305;SDS011;137;48.578;9.180;2022-10-17T15:51:16;2.37;;;1.70;;
305;SDS011;137;48.578;9.180;2022-10-17T15:53:43;2.63;;;1.50;;
305;SDS011;137;48.578;9.180;2022-10-17T15:56:19;2.30;;;1.80;;
305;SDS011;137;48.578;9.180;2022-10-17T15:58:49;3.03;;;1.37;;
305;SDS011;137;48.578;9.180;2022-10-17T16:01:18;3.90;;;1.47;;
305;SDS011;137;48.578;9.180;2022-10-17T16:03:47;2.77;;;1.77;;
305;SDS011;137;48.578;9.180;2022-10-17T16:06:15;2.97;;;1.90;;
305;SDS011;137;48.578;9.180;2022-10-17T16:08:42;3.97;;;2.17;;
305;SDS011;137;48.578;9.180;2022-10-17T16:11:09;2.20;;;1.97;;
305;SDS011;137;48.578;9.180;2022-10-17T16:13:41;4.40;;;1.90;;
305;SDS011;137;48.578;9.180;2022-10-17T16:16:16;1.73;;;1.47;;
305;SDS011;137;48.578;9.180;2022-10-17T16:18:43;3.63;;;2.00;;
305;SDS011;137;48.578;9.180;2022-10-17T16:21:10;5.40;;;2.23;;
305;SDS011;137;48.578;9.180;2022-10-17T16:23:38;10.60;;;2.10;;
305;SDS011;137;48.578;9.180;2022-10-17T16:26:06;5.70;;;2.30;;
305;SDS011;137;48.578;9.180;2022-10-17T16:28:33;5.00;;;2.00;;
305;SDS011;137;48.578;9.180;2022-10-17T16:31:00;5.93;;;2.10;;
305;SDS011;137;48.578;9.180;2022-10-17T16:33:28;3.63;;;2.30;;
305;SDS011;137;48.578;9.180;2022-10-17T16:35:55;3.80;;;2.13;;
305;SDS011;137;48.578;9.180;2022-10-17T16:38:22;4.60;;;2.80;;
305;SDS011;137;48.578;9.180;2022-10-17T16:40:49;3.70;;;2.10;;
305;SDS011;137;48.578;9.180;2022-10-17T16:43:16;3.57;;;2.57;;